createdAt,value
2018-04-15T00:01:15.447Z,37.60
2018-04-15T00:11:19.585Z,37.60
2018-04-15T00:21:23.475Z,37.60
2018-04-15T00:31:27.206Z,37.60
2018-04-15T00:41:30.395Z,38.00
2018-04-15T00:51:34.388Z,37.50
2018-04-15T01:01:37.584Z,37.50
2018-04-15T01:11:40.817Z,37.50
2018-04-15T01:21:45.505Z,37.60
2018-04-15T01:31:48.703Z,37.60
2018-04-15T01:41:51.883Z,37.60
2018-04-15T01:51:55.721Z,37.60
2018-04-15T02:01:58.990Z,37.60
2018-04-15T02:12:02.168Z,37.60
2018-04-15T02:22:05.471Z,37.80
2018-04-15T02:32:08.713Z,37.80
2018-04-15T02:42:13.701Z,37.90
2018-04-15T02:52:16.947Z,37.90
2018-04-15T03:02:20.145Z,38.00
2018-04-15T03:12:23.431Z,38.60
2018-04-15T03:22:26.597Z,38.00
2018-04-15T03:32:30.844Z,38.20
2018-04-15T03:42:34.056Z,38.10
2018-04-15T03:52:37.235Z,38.20
2018-04-15T04:02:41.184Z,38.30
2018-04-15T04:12:44.414Z,38.20
2018-04-15T04:23:05.482Z,38.30
2018-04-15T04:33:08.655Z,38.30
2018-04-15T04:43:12.604Z,38.40
2018-04-15T04:53:16.560Z,38.50
2018-04-15T05:03:20.811Z,38.40
2018-04-15T05:13:24.056Z,39.10
2018-04-15T05:23:27.231Z,38.40
2018-04-15T05:33:31.177Z,38.50
2018-04-15T05:43:35.110Z,38.60
2018-04-15T05:53:38.368Z,38.50
2018-04-15T06:03:41.559Z,38.60
2018-04-15T06:13:44.753Z,38.50
2018-04-15T06:23:48.001Z,38.60
2018-04-15T06:33:51.186Z,39.10
2018-04-15T06:43:54.488Z,38.90
2018-04-15T06:53:59.323Z,38.60
2018-04-15T07:04:04.420Z,38.60
2018-04-15T07:14:09.443Z,38.60
2018-04-15T07:24:12.615Z,38.60
2018-04-15T07:34:16.772Z,38.90
2018-04-15T07:44:20.712Z,39.00
2018-04-15T07:54:23.898Z,38.90
2018-04-15T08:04:27.724Z,38.90
2018-04-15T08:14:32.692Z,39.20
2018-04-15T08:24:36.651Z,39.20
2018-04-15T08:34:39.822Z,39.10
2018-04-15T08:44:44.063Z,39.20
2018-04-15T08:54:48.016Z,38.30
2018-04-15T09:04:51.266Z,38.30
2018-04-15T09:14:54.508Z,38.50
2018-04-15T09:24:57.752Z,39.20
2018-04-15T09:35:00.952Z,39.50
2018-04-15T09:45:04.846Z,39.80
2018-04-15T09:55:08.951Z,39.50
2018-04-15T10:05:12.164Z,39.50
2018-04-15T10:15:16.177Z,39.60
2018-04-15T10:25:20.851Z,39.60
2018-04-15T10:35:25.476Z,39.50
2018-04-15T10:45:29.558Z,39.20
2018-04-15T10:55:33.069Z,39.30
2018-04-15T11:05:36.285Z,39.40
2018-04-15T11:15:40.091Z,39.30
2018-04-15T11:25:43.746Z,39.40
2018-04-15T11:35:46.962Z,39.20
2018-04-15T11:45:50.196Z,39.00
2018-04-15T11:55:54.399Z,39.20
2018-04-15T12:05:57.643Z,39.30
2018-04-15T12:16:01.580Z,39.90
2018-04-15T12:26:04.759Z,39.90
2018-04-15T12:36:08.880Z,42.00
2018-04-15T12:46:12.096Z,41.60
2018-04-15T12:56:16.244Z,41.50
2018-04-15T13:06:21.136Z,41.00
2018-04-15T13:16:24.341Z,41.00
2018-04-15T13:26:27.526Z,41.00
2018-04-15T13:36:31.695Z,40.90
2018-04-15T13:46:34.892Z,40.90
2018-04-15T13:56:38.071Z,40.70
2018-04-15T14:06:41.247Z,41.30
2018-04-15T14:16:44.446Z,40.70
2018-04-15T14:26:47.638Z,40.70
2018-04-15T14:36:50.861Z,40.60
2018-04-15T14:46:54.149Z,40.70
2018-04-15T14:56:57.395Z,40.70
2018-04-15T15:07:00.637Z,40.80
2018-04-15T15:17:04.654Z,40.80
2018-04-15T15:27:07.843Z,40.70
2018-04-15T15:37:11.017Z,40.80
2018-04-15T15:47:15.046Z,40.90
2018-04-15T15:57:18.236Z,40.80
2018-04-15T16:07:21.430Z,40.90
2018-04-15T16:17:26.416Z,41.00
2018-04-15T16:27:31.150Z,40.90
2018-04-15T16:37:34.319Z,40.80
2018-04-15T16:47:37.489Z,40.90
2018-04-15T16:57:41.449Z,40.90
2018-04-15T17:07:45.413Z,40.90
2018-04-15T17:17:49.356Z,40.30
2018-04-15T17:27:52.597Z,40.80
2018-04-15T17:37:56.153Z,40.90
2018-04-15T17:47:59.339Z,41.00
2018-04-15T17:58:02.539Z,41.00
2018-04-15T18:08:06.503Z,41.00
2018-04-15T18:18:09.699Z,40.90
2018-04-15T18:28:12.893Z,40.90
2018-04-15T18:38:16.910Z,40.90
2018-04-15T18:48:20.103Z,40.90
2018-04-15T18:58:23.333Z,40.90
2018-04-15T19:08:26.561Z,40.90
2018-04-15T19:18:30.538Z,40.90
2018-04-15T19:28:33.715Z,40.80
2018-04-15T19:38:36.912Z,40.70
2018-04-15T19:48:40.188Z,40.70
2018-04-15T19:58:44.231Z,40.70
2018-04-15T20:08:48.194Z,40.60
2018-04-15T20:18:52.155Z,40.60
2018-04-15T20:28:56.359Z,40.60
2018-04-15T20:38:59.531Z,40.60
2018-04-15T20:49:02.727Z,40.60
2018-04-15T20:59:06.685Z,40.50
2018-04-15T21:09:11.649Z,40.60
2018-04-15T21:19:16.332Z,40.60
2018-04-15T21:29:21.103Z,40.50
2018-04-15T21:39:24.347Z,40.40
2018-04-15T21:49:27.510Z,40.40
2018-04-15T21:59:31.454Z,40.40
2018-04-15T22:09:35.408Z,40.40
2018-04-15T22:19:38.583Z,40.40
2018-04-15T22:29:42.822Z,40.30
2018-04-15T22:39:46.018Z,40.30
2018-04-15T22:49:54.841Z,40.40
2018-04-15T22:59:58.182Z,40.50
2018-04-15T23:10:02.868Z,40.80
2018-04-15T23:20:06.833Z,40.90
2018-04-15T23:30:10.021Z,40.90
2018-04-15T23:40:13.208Z,41.00
2018-04-15T23:50:17.123Z,41.00
